createdAt,value
2022-08-05T00:02:52.274Z,3.10
2022-08-05T00:06:05.365Z,3.20
2022-08-05T00:09:19.447Z,3.00
2022-08-05T00:12:22.995Z,3.20
2022-08-05T00:15:57.582Z,2.90
2022-08-05T00:18:50.223Z,2.70
2022-08-05T00:21:55.854Z,3.20
2022-08-05T00:24:58.727Z,3.00
2022-08-05T00:28:01.704Z,3.50
2022-08-05T00:31:07.620Z,3.20
2022-08-05T00:34:54.217Z,3.40
2022-08-05T00:37:35.640Z,3.40
2022-08-05T00:40:56.979Z,3.30
2022-08-05T00:44:00.726Z,3.20
2022-08-05T00:47:05.880Z,3.30
2022-08-05T00:50:09.973Z,4.00
2022-08-05T00:53:45.178Z,3.60
2022-08-05T00:56:39.983Z,3.60
2022-08-05T00:59:54.825Z,3.70
2022-08-05T01:02:59.817Z,4.80
2022-08-05T01:06:05.451Z,5.40
2022-08-05T01:09:08.658Z,5.20
2022-08-05T01:12:18.227Z,5.10
2022-08-05T01:15:36.021Z,4.70
2022-08-05T01:18:43.439Z,4.90
2022-08-05T01:22:24.246Z,4.10
2022-08-05T01:26:02.582Z,4.00
2022-08-05T01:29:23.135Z,3.70
2022-08-05T01:32:30.465Z,3.10
2022-08-05T01:35:52.193Z,3.80
2022-08-05T01:39:00.171Z,3.60
2022-08-05T01:42:12.087Z,3.20
2022-08-05T01:45:18.949Z,3.90
2022-08-05T01:48:24.174Z,3.80
2022-08-05T01:51:30.367Z,3.30
2022-08-05T01:54:46.080Z,3.70
2022-08-05T01:58:11.778Z,3.40
2022-08-05T02:01:21.482Z,3.80
2022-08-05T02:04:30.506Z,4.10
2022-08-05T02:07:35.170Z,3.90
2022-08-05T02:10:49.243Z,3.80
2022-08-05T02:14:01.424Z,3.70
2022-08-05T02:17:08.537Z,4.10
2022-08-05T02:20:26.456Z,4.10
2022-08-05T02:23:38.715Z,4.20
2022-08-05T02:26:56.822Z,3.90
2022-08-05T02:30:01.626Z,3.80
2022-08-05T02:33:07.668Z,3.80
2022-08-05T02:36:15.653Z,4.00
2022-08-05T02:39:20.563Z,3.50
2022-08-05T02:42:27.736Z,3.50
2022-08-05T02:45:52.095Z,3.40
2022-08-05T02:48:58.041Z,3.70
2022-08-05T02:52:04.727Z,3.80
2022-08-05T02:55:10.850Z,4.10
2022-08-05T02:58:17.364Z,4.00
2022-08-05T03:04:28.963Z,3.70
2022-08-05T03:07:59.392Z,3.40
2022-08-05T03:11:41.212Z,3.70
2022-08-05T03:14:18.542Z,3.90
2022-08-05T03:17:22.587Z,3.80
2022-08-05T03:20:27.241Z,3.90
2022-08-05T03:23:30.506Z,3.90
2022-08-05T03:26:34.285Z,4.20
2022-08-05T03:29:44.577Z,4.60
2022-08-05T03:33:05.582Z,4.30
2022-08-05T03:36:12.150Z,4.60
2022-08-05T03:39:20.122Z,5.00
2022-08-05T03:42:32.871Z,4.60
2022-08-05T03:45:57.372Z,4.10
2022-08-05T03:49:02.125Z,3.80
2022-08-05T03:52:37.936Z,3.80
2022-08-05T03:56:09.480Z,3.70
2022-08-05T03:59:06.831Z,3.50
2022-08-05T04:02:14.973Z,4.30
2022-08-05T04:05:23.150Z,4.20
2022-08-05T04:08:34.939Z,4.20
2022-08-05T04:11:47.103Z,3.50
2022-08-05T04:14:51.513Z,3.90
2022-08-05T04:17:59.933Z,3.60
2022-08-05T04:21:04.354Z,3.70
2022-08-05T04:24:09.079Z,3.20
2022-08-05T04:27:15.235Z,3.60
2022-08-05T04:30:18.389Z,3.30
2022-08-05T04:34:18.639Z,3.50
2022-08-05T04:36:45.541Z,3.90
2022-08-05T04:39:52.742Z,3.60
2022-08-05T04:42:55.965Z,3.90
2022-08-05T04:45:58.835Z,3.60
2022-08-05T04:49:01.810Z,3.60
2022-08-05T04:52:05.907Z,4.00
2022-08-05T04:55:14.506Z,3.90
2022-08-05T04:58:21.556Z,3.30
2022-08-05T05:02:06.044Z,3.50
2022-08-05T05:04:50.553Z,3.40
2022-08-05T05:08:01.489Z,3.90
2022-08-05T05:11:05.491Z,3.60
2022-08-05T05:14:08.757Z,4.00
2022-08-05T05:17:23.723Z,3.50
2022-08-05T05:20:28.253Z,3.70
2022-08-05T05:23:39.198Z,3.60
2022-08-05T05:26:56.477Z,3.50
2022-08-05T05:30:03.917Z,3.40
2022-08-05T05:33:14.046Z,3.70
2022-08-05T05:36:19.621Z,3.60
2022-08-05T05:39:22.847Z,3.50
2022-08-05T05:42:26.798Z,3.50
2022-08-05T05:45:30.697Z,3.80
2022-08-05T05:48:34.695Z,3.70
2022-08-05T05:51:49.603Z,3.50
2022-08-05T05:54:53.770Z,3.80
2022-08-05T05:57:56.757Z,3.50
2022-08-05T06:01:12.790Z,3.60
2022-08-05T06:04:18.414Z,3.60
2022-08-05T06:07:41.593Z,2.90
2022-08-05T06:10:49.230Z,3.10
2022-08-05T06:13:56.349Z,3.30
2022-08-05T06:17:01.974Z,3.40
2022-08-05T06:20:05.867Z,2.70
2022-08-05T06:23:21.834Z,2.70
2022-08-05T06:26:25.087Z,2.60
2022-08-05T06:29:46.373Z,2.40
2022-08-05T06:32:51.536Z,2.50
2022-08-05T06:36:07.469Z,2.60
2022-08-05T06:39:13.263Z,2.50
2022-08-05T06:42:17.333Z,2.60
2022-08-05T06:45:44.885Z,2.80
2022-08-05T06:48:55.368Z,2.20
2022-08-05T06:52:03.514Z,2.70
2022-08-05T06:55:07.760Z,2.40
2022-08-05T06:58:29.694Z,2.40
2022-08-05T07:01:33.629Z,2.30
2022-08-05T07:04:36.984Z,2.60
2022-08-05T07:07:43.247Z,2.10
2022-08-05T07:10:53.379Z,2.40
2022-08-05T07:14:20.518Z,2.30
2022-08-05T07:17:59.255Z,2.30
2022-08-05T07:20:57.334Z,2.20
2022-08-05T07:24:01.131Z,2.20
2022-08-05T07:27:04.717Z,2.00
2022-08-05T07:30:27.436Z,2.50
2022-08-05T07:33:37.033Z,2.60
2022-08-05T07:36:40.540Z,2.20
2022-08-05T07:40:26.170Z,2.20
2022-08-05T07:43:20.156Z,2.40
2022-08-05T07:46:29.478Z,2.40
2022-08-05T07:49:33.888Z,2.70
2022-08-05T07:52:47.184Z,2.40
2022-08-05T07:56:06.210Z,2.80
2022-08-05T07:59:13.595Z,2.60
2022-08-05T08:02:18.066Z,2.40
2022-08-05T08:05:21.386Z,2.60
2022-08-05T08:08:24.671Z,2.60
2022-08-05T08:11:47.044Z,2.60
2022-08-05T08:14:51.509Z,2.50
2022-08-05T08:17:55.171Z,2.60
2022-08-05T08:21:09.739Z,2.60
2022-08-05T08:24:20.565Z,2.70
2022-08-05T08:27:47.877Z,2.50
2022-08-05T08:30:54.445Z,2.60
2022-08-05T08:33:58.336Z,2.20
2022-08-05T08:37:02.258Z,2.50
2022-08-05T08:40:15.862Z,2.20
2022-08-05T08:45:20.279Z,2.10
2022-08-05T08:46:44.965Z,2.50
2022-08-05T08:50:22.251Z,2.30
2022-08-05T08:53:17.060Z,2.10
2022-08-05T08:56:22.217Z,2.10
2022-08-05T08:59:27.587Z,2.10
2022-08-05T09:02:37.847Z,1.90
2022-08-05T09:06:08.901Z,2.00
2022-08-05T09:09:05.998Z,2.00
2022-08-05T09:12:20.659Z,1.80
2022-08-05T09:15:30.986Z,1.60
2022-08-05T09:18:40.080Z,1.90
2022-08-05T09:22:23.205Z,1.60
2022-08-05T09:25:13.824Z,1.60
2022-08-05T09:28:31.876Z,2.00
2022-08-05T09:32:40.125Z,1.60
2022-08-05T09:35:00.955Z,2.10
2022-08-05T09:38:16.513Z,1.90
2022-08-05T09:41:21.639Z,1.60
2022-08-05T09:44:56.019Z,2.00
2022-08-05T09:47:59.308Z,1.60
2022-08-05T09:51:15.202Z,2.00
2022-08-05T09:54:31.723Z,1.70
2022-08-05T09:57:49.360Z,1.80
2022-08-05T10:01:02.158Z,1.60
2022-08-05T10:04:19.528Z,1.20
2022-08-05T10:08:34.893Z,1.50
2022-08-05T10:11:18.313Z,1.60
2022-08-05T10:14:32.340Z,1.20
2022-08-05T10:17:37.641Z,1.50
2022-08-05T10:23:59.467Z,1.20
2022-08-05T10:27:04.354Z,1.20
2022-08-05T10:31:20.710Z,1.20
2022-08-05T10:33:36.155Z,1.30
2022-08-05T10:36:41.951Z,1.40
2022-08-05T10:39:58.913Z,1.50
2022-08-05T10:43:31.030Z,1.30
2022-08-05T10:46:55.791Z,1.70
2022-08-05T10:50:33.009Z,1.60
2022-08-05T10:54:28.162Z,1.80
2022-08-05T10:57:31.984Z,1.60
2022-08-05T11:00:42.160Z,1.60
2022-08-05T11:04:00.579Z,1.50
2022-08-05T11:07:12.300Z,1.30
2022-08-05T11:10:29.230Z,1.80
2022-08-05T11:13:57.538Z,1.60
2022-08-05T11:17:58.883Z,1.60
2022-08-05T11:21:06.517Z,1.30
2022-08-05T11:24:30.875Z,1.40
2022-08-05T11:27:51.491Z,1.70
2022-08-05T11:31:06.223Z,1.50
2022-08-05T11:34:09.785Z,1.40
2022-08-05T11:38:30.517Z,1.80
2022-08-05T11:41:35.621Z,1.30
2022-08-05T11:44:53.174Z,1.60
2022-08-05T11:47:58.737Z,2.70
2022-08-05T11:51:03.581Z,1.90
2022-08-05T11:54:06.984Z,1.90
2022-08-05T11:57:24.427Z,2.10
2022-08-05T12:00:31.562Z,2.20
2022-08-05T12:03:43.149Z,1.60
2022-08-05T12:07:03.416Z,1.90
2022-08-05T12:10:09.637Z,1.50
2022-08-05T12:13:27.771Z,1.60
2022-08-05T12:16:46.385Z,1.40
2022-08-05T12:20:16.695Z,1.90
2022-08-05T12:23:18.630Z,1.20
2022-08-05T12:26:21.913Z,1.50
2022-08-05T12:29:38.758Z,1.30
2022-08-05T12:32:51.502Z,1.20
2022-08-05T12:35:56.354Z,1.50
2022-08-05T12:39:06.899Z,1.50
2022-08-05T12:42:17.403Z,1.60
2022-08-05T12:45:22.934Z,1.60
2022-08-05T12:48:45.963Z,1.40
2022-08-05T12:52:10.178Z,1.40
2022-08-05T12:55:22.528Z,1.50
2022-08-05T12:58:49.663Z,1.50
2022-08-05T13:02:19.962Z,1.40
2022-08-05T13:05:25.719Z,1.70
2022-08-05T13:08:41.014Z,1.40
2022-08-05T13:12:50.699Z,1.50
2022-08-05T13:15:56.442Z,1.80
2022-08-05T13:19:01.988Z,1.80
2022-08-05T13:22:05.399Z,1.60
2022-08-05T13:25:52.093Z,1.90
2022-08-05T13:29:37.643Z,1.80
2022-08-05T13:34:24.755Z,1.20
2022-08-05T13:41:13.841Z,1.40
2022-08-05T13:44:19.318Z,2.00
2022-08-05T13:47:35.530Z,2.00
2022-08-05T13:50:40.102Z,1.80
2022-08-05T13:53:47.764Z,1.90
2022-08-05T13:56:51.999Z,1.80
2022-08-05T13:59:57.199Z,2.50
2022-08-05T14:03:02.827Z,2.50
2022-08-05T14:06:25.329Z,2.60
2022-08-05T14:10:19.085Z,2.30
2022-08-05T14:13:32.368Z,2.40
2022-08-05T14:16:37.696Z,2.00
2022-08-05T14:19:55.301Z,2.30
2022-08-05T14:23:00.480Z,2.50
2022-08-05T14:26:04.937Z,2.30
2022-08-05T14:29:15.971Z,2.70
2022-08-05T14:32:27.742Z,2.60
2022-08-05T14:35:49.980Z,2.50
2022-08-05T14:38:54.386Z,2.70
2022-08-05T14:42:19.314Z,2.30
2022-08-05T14:45:29.329Z,2.70
2022-08-05T14:48:36.388Z,2.40
2022-08-05T14:51:42.413Z,2.20
2022-08-05T14:54:52.693Z,2.60
2022-08-05T14:57:57.745Z,2.40
2022-08-05T15:01:00.864Z,2.40
2022-08-05T15:04:07.320Z,1.90
2022-08-05T15:08:10.662Z,2.30
2022-08-05T15:10:37.410Z,2.00
2022-08-05T15:13:45.788Z,2.20
2022-08-05T15:16:49.911Z,2.60
2022-08-05T15:19:58.230Z,2.20
2022-08-05T15:23:05.785Z,2.10
2022-08-05T15:26:12.054Z,2.20
2022-08-05T15:29:30.086Z,2.30
2022-08-05T15:33:00.646Z,2.70
2022-08-05T15:36:06.139Z,2.20
2022-08-05T15:40:59.775Z,2.10
2022-08-05T15:42:55.681Z,2.10
2022-08-05T15:46:03.503Z,1.90
2022-08-05T15:49:10.055Z,2.00
2022-08-05T15:52:29.009Z,1.70
2022-08-05T15:56:04.239Z,2.00
2022-08-05T15:58:55.921Z,2.10
2022-08-05T16:01:59.601Z,2.00
2022-08-05T16:05:05.190Z,2.30
2022-08-05T16:08:08.311Z,2.20
2022-08-05T16:11:12.003Z,2.00
2022-08-05T16:14:17.740Z,2.00
2022-08-05T16:17:23.163Z,1.90
2022-08-05T16:20:28.598Z,2.30
2022-08-05T16:23:53.758Z,2.10
2022-08-05T16:27:00.586Z,1.90
2022-08-05T16:30:04.743Z,1.90
2022-08-05T16:33:08.728Z,2.00
2022-08-05T16:36:11.910Z,1.90
2022-08-05T16:39:15.513Z,1.90
2022-08-05T16:42:24.115Z,1.80
2022-08-05T16:46:05.101Z,2.00
2022-08-05T16:48:55.699Z,1.80
2022-08-05T16:51:59.057Z,1.90
2022-08-05T16:55:04.252Z,2.10
2022-08-05T16:58:08.568Z,2.20
2022-08-05T17:01:12.379Z,2.10
2022-08-05T17:04:15.399Z,1.80
2022-08-05T17:07:43.685Z,1.90
2022-08-05T17:10:42.621Z,1.30
2022-08-05T17:13:47.951Z,2.00
2022-08-05T17:16:53.331Z,1.80
2022-08-05T17:19:57.273Z,1.70
2022-08-05T17:23:00.352Z,1.40
2022-08-05T17:26:03.376Z,1.70
2022-08-05T17:29:09.958Z,1.30
2022-08-05T17:32:17.193Z,1.70
2022-08-05T17:35:21.109Z,1.90
2022-08-05T17:38:24.425Z,1.80
2022-08-05T17:42:17.835Z,1.70
2022-08-05T17:44:52.675Z,1.60
2022-08-05T17:47:56.383Z,1.50
2022-08-05T17:51:00.060Z,1.40
2022-08-05T17:54:04.459Z,1.20
2022-08-05T17:57:07.429Z,1.50
2022-08-05T18:00:15.490Z,1.40
2022-08-05T18:06:42.496Z,1.60
2022-08-05T18:10:00.447Z,1.30
2022-08-05T18:13:12.492Z,1.40
2022-08-05T18:16:20.263Z,1.20
2022-08-05T18:19:26.035Z,1.40
2022-08-05T18:22:46.177Z,1.50
2022-08-05T18:25:57.823Z,0.70
2022-08-05T18:29:03.190Z,1.00
2022-08-05T18:32:06.637Z,1.20
2022-08-05T18:35:17.757Z,1.30
2022-08-05T18:38:26.658Z,1.10
2022-08-05T18:41:57.288Z,1.20
2022-08-05T18:45:08.299Z,1.50
2022-08-05T18:48:17.559Z,1.30
2022-08-05T18:52:05.106Z,1.40
2022-08-05T18:55:16.206Z,1.40
2022-08-05T18:58:28.874Z,1.20
2022-08-05T19:01:48.169Z,1.30
2022-08-05T19:06:06.388Z,1.50
2022-08-05T19:08:31.505Z,1.30
2022-08-05T19:11:59.180Z,1.10
2022-08-05T19:15:25.014Z,1.20
2022-08-05T19:18:35.859Z,1.10
2022-08-05T19:21:42.631Z,1.60
2022-08-05T19:24:54.509Z,1.30
2022-08-05T19:27:59.978Z,1.40
2022-08-05T19:31:06.739Z,1.10
2022-08-05T19:34:11.372Z,1.20
2022-08-05T19:37:18.900Z,1.10
2022-08-05T19:40:26.315Z,1.30
2022-08-05T19:44:07.072Z,1.40
2022-08-05T19:47:04.539Z,0.90
2022-08-05T19:50:20.646Z,1.50
2022-08-05T19:54:04.634Z,1.10
2022-08-05T19:57:09.522Z,1.20
2022-08-05T20:00:14.767Z,1.10
2022-08-05T20:03:18.073Z,1.10
2022-08-05T20:06:29.523Z,0.90
2022-08-05T20:09:53.521Z,1.10
2022-08-05T20:12:59.905Z,0.90
2022-08-05T20:16:06.847Z,1.10
2022-08-05T20:19:12.605Z,1.20
2022-08-05T20:22:20.526Z,1.30
2022-08-05T20:25:33.734Z,1.10
2022-08-05T20:28:44.900Z,1.20
2022-08-05T20:31:57.673Z,1.30
2022-08-05T20:35:05.490Z,1.50
2022-08-05T20:38:20.072Z,1.40
2022-08-05T20:41:44.564Z,1.60
2022-08-05T20:44:48.474Z,1.20
2022-08-05T20:47:51.431Z,1.50
2022-08-05T20:50:54.975Z,1.80
2022-08-05T20:54:01.265Z,1.70
2022-08-05T20:57:04.646Z,1.90
2022-08-05T21:00:40.325Z,2.10
2022-08-05T21:03:34.702Z,1.70
2022-08-05T21:06:45.109Z,1.80
2022-08-05T21:09:53.517Z,2.20
2022-08-05T21:13:08.790Z,2.10
2022-08-05T21:16:14.320Z,2.10
2022-08-05T21:19:17.361Z,2.50
2022-08-05T21:22:23.883Z,2.60
2022-08-05T21:25:33.674Z,2.70
2022-08-05T21:28:36.999Z,3.10
2022-08-05T21:31:41.956Z,2.60
2022-08-05T21:34:44.891Z,2.60
2022-08-05T21:38:07.733Z,2.50
2022-08-05T21:41:12.083Z,3.20
2022-08-05T21:44:18.983Z,2.60
2022-08-05T21:47:55.029Z,2.40
2022-08-05T21:50:54.453Z,2.70
2022-08-05T21:53:59.525Z,2.20
2022-08-05T21:57:30.255Z,2.60
2022-08-05T22:00:30.272Z,2.30
2022-08-05T22:03:52.601Z,2.40
2022-08-05T22:06:57.325Z,2.20
2022-08-05T22:10:00.533Z,1.80
2022-08-05T22:14:05.247Z,1.60
2022-08-05T22:16:50.762Z,2.00
2022-08-05T22:19:57.512Z,1.50
2022-08-05T22:24:01.155Z,2.20
2022-08-05T22:27:24.747Z,1.80
2022-08-05T22:30:55.893Z,1.70
2022-08-05T22:34:01.088Z,1.80
2022-08-05T22:37:04.962Z,1.80
2022-08-05T22:40:34.970Z,2.00
2022-08-05T22:43:38.551Z,1.80
2022-08-05T22:46:42.455Z,1.60
2022-08-05T22:50:19.892Z,1.60
2022-08-05T22:53:15.971Z,1.30
2022-08-05T22:56:20.321Z,1.70
2022-08-05T22:59:46.009Z,1.40
2022-08-05T23:02:53.902Z,1.20
2022-08-05T23:05:57.082Z,1.60
2022-08-05T23:09:26.888Z,1.10
2022-08-05T23:12:24.630Z,1.20
2022-08-05T23:15:35.196Z,0.80
2022-08-05T23:18:39.461Z,0.80
2022-08-05T23:21:48.480Z,0.80
2022-08-05T23:24:52.362Z,0.90
2022-08-05T23:28:00.190Z,1.00
2022-08-05T23:31:17.344Z,0.60
2022-08-05T23:34:24.390Z,0.60
2022-08-05T23:37:34.272Z,0.30
2022-08-05T23:40:39.665Z,0.50
2022-08-05T23:44:04.779Z,0.40
2022-08-05T23:47:14.474Z,0.50
2022-08-05T23:50:20.033Z,0.40
2022-08-05T23:53:23.481Z,0.50
2022-08-05T23:56:31.853Z,0.40
